Time;durP1;ratioP1;P1;durP2;ratioP2;P2;SDS_P1;SDS_P2;PMS_P1;PMS_P2;Temp;Humidity;BMP_temperature;BMP_pressure;BME280_temperature;BME280_humidity;BME280_pressure;Samples;Min_cycle;Max_cycle;Signal;HPM_P1;HPM_P2
2021/04/27 00:01:58;;;;;;;4.80;1.20;;;5.50;76.50;;;;;;5063892;28;20497;-85
2021/04/27 00:04:25;;;;;;;3.90;1.40;;;5.40;76.80;;;;;;5056623;28;20143;-85
2021/04/27 00:06:51;;;;;;;8.47;1.80;;;5.40;76.90;;;;;;5064508;28;20083;-86
2021/04/27 00:09:17;;;;;;;5.63;1.60;;;5.40;77.10;;;;;;5058216;28;20036;-85
2021/04/27 00:11:44;;;;;;;6.50;1.50;;;5.30;77.40;;;;;;5078591;28;20040;-85
2021/04/27 00:14:10;;;;;;;7.73;1.40;;;5.30;77.60;;;;;;5039986;28;20052;-85
2021/04/27 00:16:36;;;;;;;5.37;1.33;;;5.30;77.40;;;;;;5061469;28;20043;-85
2021/04/27 00:19:04;;;;;;;4.30;1.33;;;5.20;77.70;;;;;;5061923;28;20032;-85
2021/04/27 00:21:30;;;;;;;4.37;1.50;;;5.20;77.90;;;;;;5065474;28;20052;-86
2021/04/27 00:23:57;;;;;;;4.97;1.50;;;5.20;77.80;;;;;;5059963;28;20036;-84
2021/04/27 00:26:23;;;;;;;10.80;4.00;;;5.10;78.10;;;;;;5034890;28;20478;-84
2021/04/27 00:28:49;;;;;;;7.57;3.03;;;5.10;78.30;;;;;;5078142;28;20032;-84
2021/04/27 00:31:15;;;;;;;6.47;2.07;;;5.10;78.40;;;;;;5029661;28;20044;-84
2021/04/27 00:33:42;;;;;;;7.90;1.67;;;5.10;78.40;;;;;;5081430;28;20047;-85
2021/04/27 00:36:08;;;;;;;3.67;1.17;;;5.10;78.70;;;;;;5075489;28;20058;-85
2021/04/27 00:38:35;;;;;;;9.47;2.30;;;5.10;79.00;;;;;;5072219;28;20041;-84
2021/04/27 00:41:01;;;;;;;9.23;2.13;;;5.10;79.20;;;;;;5064704;28;20055;-83
2021/04/27 00:43:28;;;;;;;6.07;1.93;;;5.00;79.30;;;;;;5039271;28;20617;-81
2021/04/27 00:45:54;;;;;;;6.53;1.57;;;5.00;79.50;;;;;;5064571;28;20043;-81
2021/04/27 00:48:20;;;;;;;7.37;1.90;;;5.00;79.50;;;;;;5055203;28;20051;-80
2021/04/27 00:50:47;;;;;;;9.07;2.07;;;5.00;79.80;;;;;;5083897;28;20036;-81
2021/04/27 00:53:14;;;;;;;6.03;1.53;;;4.90;79.90;;;;;;5064226;28;20387;-81
2021/04/27 00:55:41;;;;;;;4.53;2.00;;;4.90;80.10;;;;;;5065025;28;20037;-81
2021/04/27 00:58:07;;;;;;;4.53;1.87;;;4.90;80.10;;;;;;5080725;28;20489;-81
2021/04/27 01:00:38;;;;;;;4.43;1.47;;;4.90;80.10;;;;;;5081186;28;20043;-81
2021/04/27 01:03:05;;;;;;;6.30;2.10;;;4.90;80.00;;;;;;5074364;28;20044;-80
2021/04/27 01:05:34;;;;;;;5.37;1.10;;;4.90;80.20;;;;;;5063939;28;20510;-80
2021/04/27 01:08:28;;;;;;;8.50;2.33;;;4.90;80.20;;;;;;5079840;28;20429;-80
2021/04/27 01:10:58;;;;;;;7.80;2.43;;;4.90;80.60;;;;;;5062402;28;20043;-81
2021/04/27 01:13:58;;;;;;;3.83;1.77;;;4.90;80.30;;;;;;5083670;28;20036;-80
2021/04/27 01:16:26;;;;;;;7.53;1.83;;;4.80;80.50;;;;;;5042753;28;20589;-80
2021/04/27 01:18:54;;;;;;;5.03;1.80;;;4.80;80.40;;;;;;5081557;28;20051;-80
2021/04/27 01:21:23;;;;;;;4.70;1.70;;;4.80;80.60;;;;;;5084955;28;20047;-80
2021/04/27 01:24:15;;;;;;;5.03;2.30;;;4.80;80.70;;;;;;5067178;28;20056;-80
2021/04/27 01:26:57;;;;;;;6.10;2.33;;;4.70;80.70;;;;;;5079195;28;20040;-80
2021/04/27 01:29:28;;;;;;;5.70;1.10;;;4.70;80.80;;;;;;5079461;28;20282;-80
2021/04/27 01:31:57;;;;;;;4.80;2.30;;;4.70;80.60;;;;;;5080880;28;20043;-80
2021/04/27 01:34:31;;;;;;;6.93;2.07;;;4.70;81.00;;;;;;5067055;28;20044;-80
2021/04/27 01:36:58;;;;;;;6.13;2.17;;;4.70;81.10;;;;;;5076341;28;20056;-81
2021/04/27 01:39:27;;;;;;;5.87;1.60;;;4.60;81.00;;;;;;5039936;28;20075;-81
2021/04/27 01:41:56;;;;;;;4.07;2.10;;;4.60;81.10;;;;;;5077138;28;20056;-81
2021/04/27 01:44:23;;;;;;;7.07;1.70;;;4.70;81.20;;;;;;5039470;28;20047;-81
2021/04/27 01:46:50;;;;;;;7.47;2.77;;;4.60;81.30;;;;;;5061474;28;20043;-81
2021/04/27 01:49:17;;;;;;;9.07;1.93;;;4.60;81.30;;;;;;5049709;28;20044;-81
2021/04/27 01:52:13;;;;;;;6.67;2.07;;;4.60;81.20;;;;;;4987942;28;20054;-80
2021/04/27 01:54:53;;;;;;;4.03;2.10;;;4.50;81.40;;;;;;5046040;28;20048;-83
2021/04/27 01:57:20;;;;;;;5.23;2.20;;;4.60;81.40;;;;;;5088698;28;20103;-83
2021/04/27 01:59:47;;;;;;;8.43;5.03;;;4.60;81.80;;;;;;5071936;28;20036;-84
2021/04/27 02:02:21;;;;;;;11.67;4.27;;;4.50;81.70;;;;;;5057424;28;20036;-85
2021/04/27 02:05:00;;;;;;;7.33;3.00;;;4.50;81.60;;;;;;5080330;28;20044;-84
2021/04/27 02:07:46;;;;;;;4.97;2.20;;;4.50;81.80;;;;;;5064950;28;20048;-83
2021/04/27 02:10:13;;;;;;;7.23;2.70;;;4.50;81.70;;;;;;5037567;28;20028;-83
2021/04/27 02:12:44;;;;;;;8.37;2.50;;;4.50;81.90;;;;;;5070883;28;20098;-83
2021/04/27 02:15:14;;;;;;;8.07;1.77;;;4.50;81.90;;;;;;5068590;28;20035;-82
2021/04/27 02:17:46;;;;;;;3.00;1.93;;;4.50;81.70;;;;;;5063795;28;20052;-83
2021/04/27 02:20:15;;;;;;;3.35;1.80;;;4.50;81.70;;;;;;5081180;28;20500;-83
2021/04/27 02:23:12;;;;;;;3.07;1.60;;;4.40;81.70;;;;;;5003230;28;20537;-84
2021/04/27 02:25:59;;;;;;;3.03;1.73;;;4.50;81.60;;;;;;5053123;28;20063;-83
2021/04/27 02:28:29;;;;;;;4.43;2.10;;;4.40;81.60;;;;;;5074510;28;20048;-83
2021/04/27 02:30:58;;;;;;;5.10;2.13;;;4.40;81.60;;;;;;5063945;28;20040;-83
2021/04/27 02:33:25;;;;;;;8.40;1.70;;;4.40;81.60;;;;;;5075471;28;20025;-83
2021/04/27 02:35:52;;;;;;;6.47;1.90;;;4.40;81.70;;;;;;5062529;28;20064;-83
2021/04/27 02:38:30;;;;;;;4.00;1.57;;;4.40;81.40;;;;;;5057376;28;20696;-83
2021/04/27 02:40:58;;;;;;;4.03;2.30;;;4.40;81.40;;;;;;5053591;28;20036;-83
2021/04/27 02:43:25;;;;;;;5.77;1.70;;;4.40;81.30;;;;;;5081860;28;20036;-83
2021/04/27 02:45:52;;;;;;;4.20;2.33;;;4.40;81.30;;;;;;5061098;28;20039;-84
2021/04/27 02:48:24;;;;;;;6.63;2.80;;;4.40;81.70;;;;;;5060395;28;20050;-83
2021/04/27 02:50:58;;;;;;;6.87;2.70;;;4.30;81.90;;;;;;5062055;28;20040;-83
2021/04/27 02:53:27;;;;;;;7.10;3.10;;;4.30;82.20;;;;;;5042890;28;20063;-83
2021/04/27 02:55:54;;;;;;;5.60;2.10;;;4.30;82.50;;;;;;5064120;28;20755;-83
2021/04/27 02:58:22;;;;;;;3.63;2.30;;;4.30;82.40;;;;;;5076233;28;20032;-83
2021/04/27 03:00:56;;;;;;;6.80;2.63;;;4.20;82.20;;;;;;5058635;28;20047;-83
2021/04/27 03:03:22;;;;;;;6.53;2.40;;;4.20;82.40;;;;;;5041098;28;20036;-84
2021/04/27 03:05:49;;;;;;;5.90;2.60;;;4.20;82.30;;;;;;5067570;28;20059;-82
2021/04/27 03:08:16;;;;;;;4.63;2.10;;;4.20;82.50;;;;;;5067764;28;20036;-83
2021/04/27 03:10:46;;;;;;;5.10;2.50;;;4.20;82.50;;;;;;5060998;28;20032;-83
2021/04/27 03:13:13;;;;;;;9.97;5.40;;;4.20;83.00;;;;;;5054493;28;20040;-83
2021/04/27 03:15:52;;;;;;;7.27;4.47;;;4.20;82.80;;;;;;5082656;28;20036;-83
2021/04/27 03:18:18;;;;;;;5.47;3.23;;;4.20;82.50;;;;;;5063754;28;20032;-83
2021/04/27 03:20:46;;;;;;;6.47;2.07;;;4.20;82.60;;;;;;5076981;28;20059;-82
2021/04/27 03:23:23;;;;;;;6.10;1.93;;;4.10;82.50;;;;;;5068166;28;20052;-82
2021/04/27 03:25:49;;;;;;;5.47;2.13;;;4.10;82.40;;;;;;5071625;28;20043;-82
2021/04/27 03:28:19;;;;;;;6.90;2.97;;;4.00;82.50;;;;;;5066172;28;20052;-82
2021/04/27 03:30:58;;;;;;;5.87;2.43;;;4.00;82.90;;;;;;5039928;28;21414;-82
2021/04/27 03:33:25;;;;;;;5.53;2.33;;;4.00;83.50;;;;;;5069952;28;20032;-82
2021/04/27 03:35:53;;;;;;;8.07;3.33;;;3.90;83.10;;;;;;5070175;28;20418;-82
2021/04/27 03:38:20;;;;;;;6.50;2.97;;;3.90;83.30;;;;;;5064943;28;20482;-81
2021/04/27 03:40:47;;;;;;;4.43;2.17;;;3.90;83.30;;;;;;5034830;28;20047;-83
2021/04/27 03:43:18;;;;;;;3.63;2.30;;;3.90;83.20;;;;;;5059874;28;20044;-82
2021/04/27 03:45:45;;;;;;;6.53;2.57;;;3.90;83.10;;;;;;5069106;28;20047;-82
2021/04/27 03:48:14;;;;;;;6.27;3.13;;;3.90;83.10;;;;;;5042319;28;20638;-83
2021/04/27 03:50:48;;;;;;;5.40;2.43;;;3.80;83.30;;;;;;5064364;28;20051;-83
2021/04/27 03:53:33;;;;;;;4.60;2.10;;;3.80;83.40;;;;;;5080475;28;20024;-82
2021/04/27 03:56:01;;;;;;;6.93;3.67;;;3.80;83.30;;;;;;5059149;28;20044;-83
2021/04/27 03:58:29;;;;;;;5.07;2.93;;;3.80;83.40;;;;;;5051446;28;20047;-83
2021/04/27 04:00:56;;;;;;;9.93;2.83;;;3.80;83.70;;;;;;5065286;28;20050;-82
2021/04/27 04:03:23;;;;;;;4.43;2.20;;;3.80;83.50;;;;;;5053730;28;20518;-84
2021/04/27 04:05:51;;;;;;;6.53;3.80;;;3.80;83.40;;;;;;5056912;28;20505;-84
2021/04/27 04:08:49;;;;;;;5.80;2.53;;;3.70;83.50;;;;;;5037540;28;20068;-82
2021/04/27 04:11:16;;;;;;;4.90;2.33;;;3.70;83.40;;;;;;5041033;28;20060;-83
2021/04/27 04:13:43;;;;;;;4.00;2.50;;;3.70;83.30;;;;;;5051684;28;20511;-83
2021/04/27 04:16:09;;;;;;;9.47;3.47;;;3.70;83.40;;;;;;5057990;28;20055;-83
2021/04/27 04:18:36;;;;;;;8.47;3.50;;;3.70;83.30;;;;;;5060651;28;20032;-84
2021/04/27 04:21:03;;;;;;;31.53;16.70;;;3.70;83.10;;;;;;5070872;28;20037;-84
2021/04/27 04:23:59;;;;;;;35.53;18.80;;;3.70;83.50;;;;;;5054533;28;20056;-83
2021/04/27 04:26:27;;;;;;;32.83;16.33;;;3.70;83.50;;;;;;5054842;28;20040;-83
2021/04/27 04:29:16;;;;;;;17.27;8.90;;;3.70;83.60;;;;;;5058577;28;20051;-82
2021/04/27 04:32:01;;;;;;;10.73;6.50;;;3.70;83.40;;;;;;5071939;28;20569;-85
2021/04/27 04:34:46;;;;;;;8.30;4.90;;;3.70;83.30;;;;;;5069990;28;20498;-82
2021/04/27 04:37:32;;;;;;;6.43;3.50;;;3.70;83.50;;;;;;5056193;28;20056;-84
2021/04/27 04:40:17;;;;;;;5.47;3.17;;;3.70;83.40;;;;;;5076687;28;20047;-85
2021/04/27 04:43:02;;;;;;;4.43;2.50;;;3.70;83.30;;;;;;5060132;28;20489;-85
2021/04/27 04:45:47;;;;;;;5.00;2.17;;;3.80;83.20;;;;;;5079138;28;20036;-85
2021/04/27 04:48:32;;;;;;;3.70;2.43;;;3.90;82.90;;;;;;5072993;28;20052;-86
2021/04/27 04:51:08;;;;;;;6.17;2.83;;;4.00;82.80;;;;;;5080538;28;20395;-86
2021/04/27 04:53:57;;;;;;;8.40;3.03;;;4.00;83.20;;;;;;5038384;28;20367;-86
2021/04/27 04:56:25;;;;;;;4.47;2.37;;;4.10;83.00;;;;;;5062019;28;20028;-86
2021/04/27 04:58:52;;;;;;;6.23;3.00;;;4.20;82.40;;;;;;5071576;28;20025;-87
2021/04/27 05:01:19;;;;;;;6.07;2.97;;;4.30;82.30;;;;;;5059600;28;20044;-87
2021/04/27 05:04:04;;;;;;;6.37;2.03;;;4.50;82.10;;;;;;5054315;28;20051;-85
2021/04/27 05:06:59;;;;;;;5.63;2.80;;;4.70;81.40;;;;;;5052462;28;20048;-87
2021/04/27 05:09:44;;;;;;;4.27;2.90;;;5.00;80.60;;;;;;5073205;28;20044;-86
2021/04/27 05:12:22;;;;;;;5.93;2.67;;;5.00;79.80;;;;;;5034002;28;20044;-88
2021/04/27 05:14:54;;;;;;;9.13;2.90;;;5.10;79.60;;;;;;5050490;28;20036;-86
2021/04/27 05:17:23;;;;;;;4.57;2.53;;;5.10;79.50;;;;;;5060251;28;20039;-86
2021/04/27 05:19:49;;;;;;;6.07;3.80;;;5.10;79.50;;;;;;5048198;28;20467;-86
2021/04/27 05:22:19;;;;;;;7.80;3.00;;;5.10;79.40;;;;;;5060940;28;20036;-87
2021/04/27 05:24:46;;;;;;;4.90;2.53;;;5.10;79.40;;;;;;5082569;28;20398;-84
2021/04/27 05:27:17;;;;;;;4.07;2.47;;;5.10;79.30;;;;;;5060054;28;20403;-87
2021/04/27 05:29:44;;;;;;;6.53;3.13;;;5.20;79.20;;;;;;5059320;28;20044;-86
2021/04/27 05:32:10;;;;;;;6.93;3.23;;;5.20;78.80;;;;;;5052415;28;20045;-86
2021/04/27 05:34:37;;;;;;;6.43;3.67;;;5.30;78.70;;;;;;5072283;28;20039;-87
2021/04/27 05:37:03;;;;;;;7.57;2.63;;;5.40;78.40;;;;;;5053446;28;20056;-84
2021/04/27 05:39:30;;;;;;;4.97;3.10;;;5.50;78.10;;;;;;5047243;28;20067;-85
2021/04/27 05:41:56;;;;;;;4.57;2.77;;;5.60;77.80;;;;;;5079878;28;20045;-85
2021/04/27 05:44:23;;;;;;;5.23;2.87;;;5.70;77.40;;;;;;5076222;28;20044;-85
2021/04/27 05:46:50;;;;;;;5.87;2.67;;;5.80;77.00;;;;;;5078698;28;20040;-86
2021/04/27 05:49:16;;;;;;;9.20;3.20;;;6.00;76.50;;;;;;5061512;28;20051;-85
2021/04/27 05:51:42;;;;;;;6.40;2.80;;;6.20;75.40;;;;;;5065431;28;20043;-84
2021/04/27 05:54:09;;;;;;;5.20;2.30;;;6.30;74.80;;;;;;5081743;28;20509;-85
2021/04/27 05:56:36;;;;;;;5.33;2.17;;;6.50;74.00;;;;;;5057815;28;20047;-85
2021/04/27 05:59:03;;;;;;;5.73;3.27;;;6.60;73.10;;;;;;5063882;28;20032;-85
2021/04/27 06:01:30;;;;;;;6.23;2.87;;;6.70;72.40;;;;;;5064484;28;20036;-85
2021/04/27 06:03:56;;;;;;;6.10;2.47;;;6.90;71.70;;;;;;5079218;28;20498;-85
2021/04/27 06:06:23;;;;;;;3.87;2.70;;;7.00;71.70;;;;;;5059407;28;20470;-85
2021/04/27 06:08:49;;;;;;;4.93;2.90;;;7.20;70.80;;;;;;5076788;28;20040;-85
2021/04/27 06:11:15;;;;;;;2.27;1.40;;;7.40;70.50;;;;;;5057624;28;20032;-85
2021/04/27 06:13:42;;;;;;;6.37;2.77;;;7.60;70.30;;;;;;5079732;28;20415;-85
2021/04/27 06:16:09;;;;;;;5.40;2.03;;;7.70;69.10;;;;;;5067702;28;20506;-85
2021/04/27 06:18:36;;;;;;;3.30;2.27;;;7.80;67.60;;;;;;5072925;28;20503;-85
2021/04/27 06:21:03;;;;;;;4.17;2.80;;;7.90;67.20;;;;;;5057930;28;20049;-85
2021/04/27 06:23:29;;;;;;;5.60;2.33;;;8.00;66.30;;;;;;5071801;28;20485;-85
2021/04/27 06:25:56;;;;;;;4.70;2.13;;;8.10;65.60;;;;;;5058892;28;20044;-84
2021/04/27 06:28:22;;;;;;;2.93;1.60;;;8.10;65.40;;;;;;5062627;28;20070;-85
2021/04/27 06:30:48;;;;;;;3.77;2.13;;;8.20;66.40;;;;;;5077442;28;20051;-85
2021/04/27 06:33:15;;;;;;;4.20;2.10;;;8.40;65.70;;;;;;5077484;28;20376;-85
2021/04/27 06:35:42;;;;;;;6.47;2.70;;;8.60;65.40;;;;;;5062590;28;20055;-86
2021/04/27 06:38:09;;;;;;;5.63;2.03;;;8.90;64.00;;;;;;5034480;28;20048;-85
2021/04/27 06:40:37;;;;;;;7.63;2.10;;;9.20;62.20;;;;;;5085490;28;20032;-84
2021/04/27 06:43:03;;;;;;;6.27;1.87;;;9.40;61.60;;;;;;5080257;28;20032;-85
2021/04/27 06:45:29;;;;;;;3.40;2.25;;;9.60;61.50;;;;;;5062421;28;20044;-85
2021/04/27 06:47:56;;;;;;;4.13;2.10;;;9.70;61.20;;;;;;5060313;28;20046;-85
2021/04/27 06:50:22;;;;;;;4.32;2.42;;;9.80;60.00;;;;;;5052024;28;20049;-85
2021/04/27 06:52:48;;;;;;;4.70;2.42;;;9.70;59.50;;;;;;5065210;28;20036;-85
2021/04/27 06:55:15;;;;;;;4.20;2.42;;;9.70;59.70;;;;;;5051942;28;20483;-85
2021/04/27 06:57:41;;;;;;;4.03;2.40;;;9.80;59.30;;;;;;5062082;28;20044;-84
2021/04/27 07:00:09;;;;;;;5.65;2.38;;;9.90;59.00;;;;;;5062210;28;20043;-85
2021/04/27 07:02:35;;;;;;;7.47;2.65;;;10.10;58.10;;;;;;5060598;28;20077;-84
2021/04/27 07:05:02;;;;;;;5.37;2.00;;;10.30;58.00;;;;;;5051623;28;20510;-85
2021/04/27 07:07:29;;;;;;;3.17;1.88;;;10.40;57.70;;;;;;5068089;28;20036;-85
2021/04/27 07:09:55;;;;;;;3.47;1.77;;;10.50;56.90;;;;;;5077620;28;20048;-85
2021/04/27 07:12:22;;;;;;;5.10;2.13;;;10.60;56.50;;;;;;5026160;28;20040;-85
2021/04/27 07:14:49;;;;;;;6.03;2.20;;;10.50;56.70;;;;;;5080196;28;20032;-85
2021/04/27 07:17:16;;;;;;;5.38;2.17;;;10.50;57.10;;;;;;5082659;28;20044;-85
2021/04/27 07:19:42;;;;;;;4.95;2.17;;;10.60;56.90;;;;;;5081551;28;20040;-84
2021/04/27 07:22:09;;;;;;;5.82;2.80;;;10.60;56.80;;;;;;5056171;28;20070;-85
2021/04/27 07:24:36;;;;;;;4.80;2.33;;;10.50;57.00;;;;;;5078060;28;20044;-85
2021/04/27 07:27:03;;;;;;;3.00;2.10;;;10.60;57.30;;;;;;5084586;28;20036;-84
2021/04/27 07:29:30;;;;;;;4.70;2.50;;;10.70;56.60;;;;;;5049099;28;20044;-85
2021/04/27 07:31:56;;;;;;;7.85;4.90;;;10.80;56.70;;;;;;5065371;28;20040;-85
2021/04/27 07:34:22;;;;;;;4.72;2.67;;;10.90;56.60;;;;;;5074925;28;20036;-85
2021/04/27 07:36:49;;;;;;;3.80;2.30;;;11.00;56.40;;;;;;5083498;28;20059;-85
2021/04/27 07:39:15;;;;;;;5.47;2.60;;;11.10;56.40;;;;;;5059762;28;20048;-85
2021/04/27 07:41:43;;;;;;;5.80;2.30;;;11.30;56.20;;;;;;5075390;28;20045;-84
2021/04/27 07:44:10;;;;;;;2.90;1.77;;;11.50;56.10;;;;;;5062698;28;20407;-84
2021/04/27 07:46:37;;;;;;;2.92;1.58;;;11.60;56.00;;;;;;5058573;28;20056;-86
2021/04/27 07:49:04;;;;;;;5.07;1.65;;;11.80;56.00;;;;;;5074730;28;20048;-87
2021/04/27 07:51:30;;;;;;;3.20;1.75;;;12.00;55.00;;;;;;5043853;28;20483;-84
2021/04/27 07:54:02;;;;;;;2.75;1.50;;;12.20;54.60;;;;;;5032184;28;20040;-88
2021/04/27 07:56:29;;;;;;;3.38;1.80;;;12.30;53.60;;;;;;5065161;28;20039;-87
2021/04/27 07:59:00;;;;;;;3.45;1.90;;;12.30;52.90;;;;;;5063259;28;20039;-84
2021/04/27 08:01:27;;;;;;;7.45;2.13;;;12.40;52.50;;;;;;5080708;28;20040;-90
2021/04/27 08:03:53;;;;;;;2.80;1.30;;;12.50;51.50;;;;;;5048102;28;20044;-86
2021/04/27 08:06:19;;;;;;;2.95;1.77;;;12.60;51.90;;;;;;5062592;28;20040;-87
2021/04/27 08:08:46;;;;;;;2.70;1.83;;;12.70;51.00;;;;;;5042226;28;20036;-85
2021/04/27 08:11:12;;;;;;;3.65;1.60;;;12.90;50.60;;;;;;5049360;28;20048;-85
2021/04/27 08:13:39;;;;;;;5.65;2.15;;;13.00;49.10;;;;;;5068136;28;20040;-89
2021/04/27 08:16:06;;;;;;;3.75;1.38;;;13.10;48.50;;;;;;5047043;28;20032;-90
2021/04/27 08:18:36;;;;;;;4.50;1.48;;;13.00;48.20;;;;;;5061348;28;20037;-87
2021/04/27 08:21:06;;;;;;;3.03;1.70;;;13.10;48.10;;;;;;5082468;28;20055;-87
2021/04/27 08:23:35;;;;;;;2.40;1.40;;;13.10;47.40;;;;;;5061788;28;20044;-90
2021/04/27 08:26:03;;;;;;;3.60;1.85;;;13.20;46.70;;;;;;5076425;28;20028;-91
2021/04/27 08:28:30;;;;;;;3.28;1.50;;;13.20;46.70;;;;;;5076186;28;20048;-90
2021/04/27 08:30:56;;;;;;;4.75;1.20;;;13.30;46.00;;;;;;5064357;28;20513;-90
2021/04/27 08:33:24;;;;;;;3.35;1.35;;;13.30;45.70;;;;;;5079804;28;20512;-90
2021/04/27 08:35:51;;;;;;;5.05;1.80;;;13.40;46.20;;;;;;5068119;28;20410;-89
2021/04/27 08:38:18;;;;;;;3.97;1.52;;;13.40;45.60;;;;;;5064333;28;20044;-90
2021/04/27 08:40:45;;;;;;;3.95;1.27;;;13.50;45.70;;;;;;5051310;28;20044;-88
2021/04/27 08:43:15;;;;;;;3.38;1.52;;;13.50;44.90;;;;;;5080444;28;20028;-89
2021/04/27 08:45:43;;;;;;;4.50;1.42;;;13.60;45.10;;;;;;5063830;28;20058;-87
2021/04/27 08:48:11;;;;;;;4.60;1.83;;;13.80;45.10;;;;;;5051084;28;20861;-88
2021/04/27 08:50:39;;;;;;;3.60;1.67;;;13.90;43.70;;;;;;5044526;28;20491;-88
2021/04/27 08:53:08;;;;;;;5.60;1.90;;;13.80;44.00;;;;;;5077868;28;20029;-87
2021/04/27 08:55:35;;;;;;;9.45;2.60;;;13.90;44.10;;;;;;5059233;28;20107;-87
2021/04/27 08:58:09;;;;;;;6.53;2.22;;;14.00;43.80;;;;;;5073838;28;20043;-88
2021/04/27 09:00:36;;;;;;;3.17;1.45;;;14.00;42.70;;;;;;5067291;28;20028;-90
2021/04/27 09:03:05;;;;;;;5.60;1.73;;;14.00;43.10;;;;;;5072707;28;20055;-91
2021/04/27 09:05:34;;;;;;;6.63;1.90;;;14.20;43.10;;;;;;5071214;28;21045;-90
2021/04/27 09:08:01;;;;;;;3.50;1.33;;;14.20;43.10;;;;;;5059931;28;20051;-87
2021/04/27 09:10:46;;;;;;;7.00;1.80;;;14.30;43.20;;;;;;5076110;28;20043;-84
2021/04/27 09:13:15;;;;;;;4.15;1.50;;;14.40;42.10;;;;;;5065790;28;20028;-87
2021/04/27 09:15:48;;;;;;;4.30;1.65;;;14.40;41.90;;;;;;5078416;28;20033;-88
2021/04/27 09:18:34;;;;;;;3.25;1.55;;;14.50;41.80;;;;;;5060211;28;20525;-90
2021/04/27 09:21:07;;;;;;;2.45;1.25;;;14.50;41.10;;;;;;5083600;28;20687;-90
2021/04/27 09:23:35;;;;;;;4.55;1.60;;;14.60;41.20;;;;;;5070924;28;20861;-89
2021/04/27 09:26:10;;;;;;;3.30;1.25;;;14.70;41.10;;;;;;5081767;28;20475;-88
2021/04/27 09:28:42;;;;;;;4.13;1.50;;;14.70;40.90;;;;;;5063154;28;20040;-84
2021/04/27 09:31:27;;;;;;;2.90;1.10;;;14.80;40.20;;;;;;5078577;28;20029;-86
2021/04/27 09:34:14;;;;;;;1.50;0.85;;;14.90;40.70;;;;;;5076339;28;20032;-88
2021/04/27 09:36:40;;;;;;;3.17;1.20;;;15.00;40.30;;;;;;5077693;28;20036;-87
2021/04/27 09:39:07;;;;;;;3.88;1.20;;;15.10;38.60;;;;;;5064385;28;20035;-86
2021/04/27 09:41:33;;;;;;;4.72;1.35;;;15.10;37.60;;;;;;5080788;28;20040;-86
2021/04/27 09:44:00;;;;;;;3.20;1.30;;;15.10;38.10;;;;;;5065181;28;20043;-84
2021/04/27 09:46:26;;;;;;;3.72;1.10;;;15.30;38.20;;;;;;5081013;28;20043;-85
2021/04/27 09:48:55;;;;;;;2.40;1.02;;;15.30;38.00;;;;;;5081244;28;20047;-87
2021/04/27 09:51:30;;;;;;;3.80;1.45;;;15.40;37.40;;;;;;5079101;28;20029;-86
2021/04/27 09:54:04;;;;;;;4.28;1.00;;;15.50;37.90;;;;;;5063758;28;20052;-86
2021/04/27 09:56:42;;;;;;;3.30;1.67;;;15.60;37.10;;;;;;5046113;28;20035;-84
2021/04/27 09:59:27;;;;;;;3.63;1.10;;;15.70;36.30;;;;;;5084053;28;20047;-86
2021/04/27 10:02:01;;;;;;;2.45;1.25;;;15.80;35.80;;;;;;5082951;28;20043;-84
2021/04/27 10:04:28;;;;;;;2.42;1.08;;;15.80;36.40;;;;;;5080522;28;20801;-81
2021/04/27 10:06:57;;;;;;;6.55;1.08;;;15.90;36.00;;;;;;5063244;28;20479;-84
2021/04/27 10:09:25;;;;;;;3.72;1.10;;;15.90;35.70;;;;;;5041186;28;20049;-86
2021/04/27 10:11:53;;;;;;;3.35;1.65;;;15.90;36.10;;;;;;5081866;28;20043;-86
2021/04/27 10:14:20;;;;;;;6.57;1.33;;;15.90;36.10;;;;;;5081438;28;20037;-85
2021/04/27 10:16:46;;;;;;;4.13;1.48;;;15.90;35.80;;;;;;5067363;28;20044;-86
2021/04/27 10:19:13;;;;;;;3.55;1.00;;;15.90;35.60;;;;;;5084180;28;20036;-85
2021/04/27 10:21:39;;;;;;;5.55;1.42;;;16.00;36.00;;;;;;5064668;28;20040;-85
2021/04/27 10:24:18;;;;;;;4.05;0.95;;;16.00;35.80;;;;;;5084472;28;20036;-86
2021/04/27 10:26:46;;;;;;;4.22;1.10;;;16.10;36.80;;;;;;5077190;28;20048;-86
2021/04/27 10:29:26;;;;;;;5.13;1.55;;;16.50;36.60;;;;;;5079010;28;20033;-85
2021/04/27 10:32:16;;;;;;;3.33;1.33;;;16.60;34.50;;;;;;5078108;28;20453;-85
2021/04/27 10:35:01;;;;;;;3.92;1.10;;;16.60;34.70;;;;;;5082063;28;20020;-88
2021/04/27 10:37:51;;;;;;;4.18;1.38;;;16.70;34.50;;;;;;5088874;28;20044;-88
2021/04/27 10:40:43;;;;;;;4.50;1.77;;;16.80;34.30;;;;;;5076307;28;20036;-86
2021/04/27 10:43:25;;;;;;;2.30;1.10;;;17.00;34.40;;;;;;5082042;28;20467;-84
2021/04/27 10:45:59;;;;;;;2.83;0.98;;;17.40;35.10;;;;;;5068356;28;20043;-85
2021/04/27 10:48:36;;;;;;;8.48;1.15;;;17.90;34.90;;;;;;5086307;28;20076;-88
2021/04/27 10:51:21;;;;;;;2.85;1.38;;;18.20;32.60;;;;;;5069772;28;20036;-89
2021/04/27 10:54:21;;;;;;;3.03;1.30;;;18.40;32.20;;;;;;5066323;28;20040;-88
2021/04/27 10:57:04;;;;;;;3.65;1.25;;;18.50;32.10;;;;;;5076413;28;20039;-85
2021/04/27 10:59:55;;;;;;;3.47;2.20;;;18.70;32.20;;;;;;5075928;28;20043;-87
2021/04/27 11:02:30;;;;;;;6.78;4.13;;;19.00;31.50;;;;;;5062355;28;20059;-85
2021/04/27 11:05:20;;;;;;;4.10;1.98;;;19.30;31.30;;;;;;5076996;28;20028;-87
2021/04/27 11:07:47;;;;;;;2.30;1.08;;;19.60;30.90;;;;;;5083691;28;20043;-85
2021/04/27 11:10:13;;;;;;;8.60;4.22;;;20.00;31.00;;;;;;5063231;28;20047;-83
2021/04/27 11:12:52;;;;;;;6.55;4.25;;;20.40;30.00;;;;;;5086477;28;20047;-85
2021/04/27 11:15:18;;;;;;;11.52;9.18;;;20.70;29.10;;;;;;5080513;28;20036;-83
2021/04/27 11:18:16;;;;;;;5.43;2.03;;;20.70;29.40;;;;;;5083555;28;21073;-87
2021/04/27 11:20:43;;;;;;;3.08;2.10;;;21.00;28.70;;;;;;5080739;28;20047;-87
2021/04/27 11:23:36;;;;;;;3.30;1.40;;;21.10;28.30;;;;;;5075935;28;20024;-84
2021/04/27 11:26:23;;;;;;;6.72;1.60;;;21.20;28.20;;;;;;5080156;28;20035;-85
2021/04/27 11:28:54;;;;;;;3.60;1.63;;;21.20;28.40;;;;;;5075397;28;20028;-87
2021/04/27 11:31:21;;;;;;;5.10;1.80;;;21.30;28.10;;;;;;5075295;28;20368;-88
2021/04/27 11:33:57;;;;;;;5.50;2.38;;;21.30;27.80;;;;;;5079101;28;20051;-86
2021/04/27 11:36:41;;;;;;;5.30;3.40;;;21.50;27.90;;;;;;5074799;28;20537;-87
2021/04/27 11:39:13;;;;;;;5.43;1.23;;;21.80;27.70;;;;;;5063482;28;20039;-88
2021/04/27 11:41:48;;;;;;;4.05;1.73;;;22.10;27.20;;;;;;5075499;28;20371;-88
2021/04/27 11:44:16;;;;;;;1.85;1.33;;;22.30;26.90;;;;;;5059410;28;20047;-88
2021/04/27 11:47:02;;;;;;;4.50;1.33;;;22.40;26.20;;;;;;5079243;28;20048;-89
2021/04/27 11:50:04;;;;;;;6.88;1.80;;;22.20;26.60;;;;;;5073800;28;20048;-88
2021/04/27 11:52:37;;;;;;;3.10;1.48;;;22.40;26.50;;;;;;5058868;28;20048;-89
2021/04/27 11:55:10;;;;;;;3.13;1.70;;;22.50;26.40;;;;;;5073538;28;20499;-85
2021/04/27 11:57:43;;;;;;;5.57;2.28;;;22.70;26.50;;;;;;5062060;28;20043;-87
2021/04/27 12:00:10;;;;;;;3.58;1.42;;;22.80;25.80;;;;;;5076213;28;20040;-88
2021/04/27 12:02:37;;;;;;;3.38;1.80;;;22.70;25.80;;;;;;5075312;28;20024;-88
2021/04/27 12:05:04;;;;;;;5.20;2.05;;;23.00;25.60;;;;;;5058976;28;20040;-87
2021/04/27 12:07:30;;;;;;;2.13;1.55;;;23.30;25.70;;;;;;5074983;28;20024;-89
2021/04/27 12:09:59;;;;;;;4.70;1.63;;;23.60;25.20;;;;;;5063400;28;20047;-82
2021/04/27 12:12:26;;;;;;;4.50;1.52;;;23.80;25.40;;;;;;5077070;28;20506;-85
2021/04/27 12:14:56;;;;;;;4.07;1.65;;;23.80;24.60;;;;;;5040025;28;21019;-86
2021/04/27 12:17:27;;;;;;;2.92;1.27;;;23.60;24.50;;;;;;5064012;28;20032;-88
2021/04/27 12:20:17;;;;;;;3.25;1.38;;;23.50;25.20;;;;;;5072911;28;20614;-86
2021/04/27 12:22:50;;;;;;;2.78;1.50;;;23.60;24.60;;;;;;5069106;28;20047;-83
2021/04/27 12:25:19;;;;;;;2.15;1.30;;;23.70;24.60;;;;;;5072070;28;20461;-83
2021/04/27 12:27:46;;;;;;;3.03;1.17;;;23.90;24.70;;;;;;5059239;28;20035;-84
2021/04/27 12:30:17;;;;;;;2.38;1.30;;;24.20;24.30;;;;;;5075474;28;20505;-83
2021/04/27 12:32:48;;;;;;;4.20;1.25;;;24.60;24.00;;;;;;5077315;28;20043;-84
2021/04/27 12:35:17;;;;;;;3.75;1.52;;;24.70;24.00;;;;;;5075433;28;20028;-84
2021/04/27 12:37:58;;;;;;;3.25;1.35;;;24.90;24.00;;;;;;5077632;28;20040;-85
2021/04/27 12:40:28;;;;;;;2.42;1.27;;;25.30;23.90;;;;;;5078316;28;20485;-84
2021/04/27 12:43:01;;;;;;;3.22;1.20;;;25.50;23.40;;;;;;5083077;28;20799;-84
2021/04/27 12:45:29;;;;;;;2.70;1.30;;;25.60;23.20;;;;;;5059923;28;20063;-85
2021/04/27 12:48:05;;;;;;;4.18;1.63;;;25.60;23.00;;;;;;5055914;28;20044;-86
2021/04/27 12:50:32;;;;;;;4.82;1.48;;;25.60;22.80;;;;;;5054447;28;20052;-86
2021/04/27 12:53:04;;;;;;;4.40;1.50;;;25.40;22.70;;;;;;5049900;28;20040;-86
2021/04/27 12:55:33;;;;;;;5.47;1.75;;;25.30;22.30;;;;;;5075290;28;20044;-86
2021/04/27 12:58:14;;;;;;;2.55;1.27;;;25.20;22.60;;;;;;5077900;28;20059;-86
2021/04/27 13:01:02;;;;;;;2.45;1.08;;;25.40;23.00;;;;;;5078466;28;20054;-86
2021/04/27 13:03:52;;;;;;;2.03;1.00;;;25.80;23.10;;;;;;5076207;28;20039;-85
2021/04/27 13:06:29;;;;;;;2.28;1.23;;;26.30;22.90;;;;;;5078114;28;20024;-86
2021/04/27 13:09:03;;;;;;;3.25;1.00;;;26.80;22.30;;;;;;5074846;28;20675;-85
2021/04/27 13:11:29;;;;;;;1.50;1.00;;;26.90;22.30;;;;;;5081331;28;20027;-80
2021/04/27 13:14:39;;;;;;;2.80;1.10;;;27.00;22.40;;;;;;5074031;28;20487;-81
2021/04/27 13:17:07;;;;;;;3.35;1.20;;;26.90;21.90;;;;;;5051458;28;20036;-82